createdAt,value
2023-08-08T00:00:55.585Z,99640.03
2023-08-08T00:03:22.816Z,99638.00
2023-08-08T00:05:50.174Z,99641.69
2023-08-08T00:08:17.280Z,99642.19
2023-08-08T00:10:44.361Z,99655.09
2023-08-08T00:13:11.519Z,99646.72
2023-08-08T00:15:38.611Z,99663.47
2023-08-08T00:18:05.911Z,99661.47
2023-08-08T00:20:33.032Z,99653.75
2023-08-08T00:23:00.141Z,99650.72
2023-08-08T00:25:27.329Z,99648.19
2023-08-08T00:27:54.443Z,99654.03
2023-08-08T00:30:21.537Z,99663.28
2023-08-08T00:32:48.628Z,99658.72
2023-08-08T00:35:15.785Z,99659.56
2023-08-08T00:37:42.877Z,99663.44
2023-08-08T00:40:10.097Z,99662.06
2023-08-08T00:42:37.213Z,99657.06
2023-08-08T00:45:05.088Z,99662.06
2023-08-08T00:47:34.022Z,99649.84
2023-08-08T00:50:03.717Z,99653.00
2023-08-08T00:52:31.450Z,99656.38
2023-08-08T00:54:58.854Z,99637.22
2023-08-08T00:57:26.323Z,99651.34
2023-08-08T00:59:53.430Z,99648.63
2023-08-08T01:02:20.820Z,99649.66
2023-08-08T01:04:48.041Z,99657.06
2023-08-08T01:07:24.281Z,99665.44
2023-08-08T01:09:56.209Z,99666.75
2023-08-08T01:12:24.515Z,99663.44
2023-08-08T01:14:53.861Z,99654.00
2023-08-08T01:17:22.149Z,99662.22
2023-08-08T01:19:49.498Z,99663.19
2023-08-08T01:22:23.618Z,99664.03
2023-08-08T01:24:51.841Z,99656.47
2023-08-08T01:27:19.091Z,99667.88
2023-08-08T01:29:46.770Z,99664.66
2023-08-08T01:32:15.180Z,99659.63
2023-08-08T01:34:42.293Z,99666.69
2023-08-08T01:37:18.492Z,99668.19
2023-08-08T01:39:47.173Z,99647.53
2023-08-08T01:42:15.545Z,99664.97
2023-08-08T01:44:42.996Z,99660.25
2023-08-08T01:47:10.176Z,99653.19
2023-08-08T01:49:37.253Z,99650.34
2023-08-08T01:52:04.564Z,99645.44
2023-08-08T01:54:31.678Z,99636.06
2023-08-08T01:56:58.815Z,99629.00
2023-08-08T01:59:26.095Z,99631.50
2023-08-08T02:01:53.264Z,99602.78
2023-08-08T02:04:20.905Z,99604.78
2023-08-08T02:06:48.032Z,99590.50
2023-08-08T02:09:20.121Z,99604.13
2023-08-08T02:11:48.939Z,99588.00
2023-08-08T02:14:16.375Z,99588.34
2023-08-08T02:16:43.687Z,99588.50
2023-08-08T02:19:11.529Z,99595.75
2023-08-08T02:21:38.617Z,99594.06
2023-08-08T02:24:05.718Z,99594.91
2023-08-08T02:26:32.866Z,99591.53
2023-08-08T02:29:00.125Z,99592.03
2023-08-08T02:31:27.203Z,99586.84
2023-08-08T02:33:54.298Z,99587.66
2023-08-08T02:36:21.492Z,99582.47
2023-08-08T02:38:48.633Z,99583.66
2023-08-08T02:41:15.741Z,99567.91
2023-08-08T02:43:43.117Z,99573.28
2023-08-08T02:46:10.273Z,99574.94
2023-08-08T02:48:37.818Z,99561.69
2023-08-08T02:51:04.953Z,99566.56
2023-08-08T02:53:32.209Z,99567.22
2023-08-08T02:55:59.312Z,99567.41
2023-08-08T02:58:30.217Z,99566.88
2023-08-08T03:00:59.370Z,99564.03
2023-08-08T03:03:26.542Z,99570.22
2023-08-08T03:05:53.592Z,99554.16
2023-08-08T03:08:21.388Z,99556.53
2023-08-08T03:10:48.506Z,99561.19
2023-08-08T03:13:15.658Z,99557.47
2023-08-08T03:15:43.103Z,99550.63
2023-08-08T03:18:10.824Z,99552.09
2023-08-08T03:20:37.955Z,99549.78
2023-08-08T03:23:06.461Z,99543.41
2023-08-08T03:25:33.565Z,99546.25
2023-08-08T03:28:01.453Z,99548.13
2023-08-08T03:30:28.537Z,99551.47
2023-08-08T03:32:56.049Z,99550.63
2023-08-08T03:35:23.193Z,99550.09
2023-08-08T03:37:50.358Z,99544.22
2023-08-08T03:40:17.664Z,99543.41
2023-08-08T03:42:44.732Z,99545.44
2023-08-08T03:45:11.940Z,99539.38
2023-08-08T03:47:39.132Z,99538.72
2023-08-08T03:50:06.623Z,99542.06
2023-08-08T03:52:36.597Z,99540.22
2023-08-08T03:55:04.133Z,99546.09
2023-08-08T03:57:31.796Z,99540.41
2023-08-08T03:59:58.866Z,99535.41
2023-08-08T04:02:27.074Z,99529.34
2023-08-08T04:04:54.203Z,99521.84
2023-08-08T04:07:21.552Z,99522.34
2023-08-08T04:09:49.745Z,99530.06
2023-08-08T04:12:16.851Z,99528.25
2023-08-08T04:14:43.959Z,99528.72
2023-08-08T04:17:11.116Z,99532.25
2023-08-08T04:19:38.281Z,99521.22
2023-08-08T04:22:05.550Z,99546.91
2023-08-08T04:24:32.638Z,99547.06
2023-08-08T04:26:59.750Z,99545.88
2023-08-08T04:29:26.845Z,99531.66
2023-08-08T04:31:54.054Z,99542.72
2023-08-08T04:34:21.177Z,99536.19
2023-08-08T04:36:48.251Z,99539.53
2023-08-08T04:39:15.312Z,99523.59
2023-08-08T04:41:42.373Z,99526.50
2023-08-08T04:44:09.452Z,99514.44
2023-08-08T04:46:36.703Z,99529.66
2023-08-08T04:49:03.882Z,99525.31
2023-08-08T04:51:31.048Z,99519.44
2023-08-08T04:53:58.165Z,99516.31
2023-08-08T04:56:25.250Z,99529.84
2023-08-08T04:58:52.317Z,99538.38
2023-08-08T05:01:21.450Z,99544.44
2023-08-08T05:03:49.447Z,99556.94
2023-08-08T05:06:16.603Z,99636.59
2023-08-08T05:08:44.004Z,99755.38
2023-08-08T05:11:11.156Z,99769.44
2023-08-08T05:13:38.216Z,99718.50
2023-08-08T05:16:05.460Z,99527.75
2023-08-08T05:18:32.701Z,99516.03
2023-08-08T05:20:59.827Z,99504.50
2023-08-08T05:23:26.933Z,99491.22
2023-08-08T05:25:54.042Z,99547.34
2023-08-08T05:28:21.905Z,99592.75
2023-08-08T05:30:49.076Z,99604.44
2023-08-08T05:33:16.292Z,99633.34
2023-08-08T05:35:43.469Z,99676.50
2023-08-08T05:38:10.627Z,99694.91
2023-08-08T05:40:37.837Z,99678.97
2023-08-08T05:43:05.043Z,99678.75
2023-08-08T05:45:32.933Z,99710.28
2023-08-08T05:48:01.567Z,99710.91
2023-08-08T05:50:29.317Z,99727.63
2023-08-08T05:52:56.609Z,99720.41
2023-08-08T05:55:23.710Z,99713.00
2023-08-08T05:57:50.792Z,99711.69
2023-08-08T06:00:17.973Z,99722.06
2023-08-08T06:02:45.144Z,99714.25
2023-08-08T06:05:12.261Z,99712.75
2023-08-08T06:07:40.304Z,99727.88
2023-08-08T06:10:07.913Z,99689.81
2023-08-08T06:12:35.095Z,99671.72
2023-08-08T06:15:02.162Z,99625.06
2023-08-08T06:17:29.508Z,99605.50
2023-08-08T06:19:58.073Z,99547.34
2023-08-08T06:22:25.346Z,99526.28
2023-08-08T06:24:53.116Z,99497.66
2023-08-08T06:27:20.297Z,99458.78
2023-08-08T06:29:47.436Z,99409.75
2023-08-08T06:32:14.503Z,99350.75
2023-08-08T06:34:41.581Z,99291.25
2023-08-08T06:37:08.652Z,99253.22
2023-08-08T06:39:36.065Z,99184.88
2023-08-08T06:42:21.543Z,99111.50
2023-08-08T06:45:14.729Z,99069.72
2023-08-08T06:47:41.882Z,99046.34
2023-08-08T06:50:09.462Z,99010.94
2023-08-08T06:52:36.547Z,98963.06
2023-08-08T06:55:03.857Z,98867.06
2023-08-08T06:57:34.988Z,98853.28
2023-08-08T07:00:02.578Z,98764.72
2023-08-08T07:02:30.967Z,98738.97
2023-08-08T07:04:58.176Z,98632.94
2023-08-08T07:07:25.221Z,98636.06
2023-08-08T07:09:52.294Z,98563.91
2023-08-08T07:12:19.475Z,98510.41
2023-08-08T07:14:46.638Z,98457.31
2023-08-08T07:17:13.732Z,98437.69
2023-08-08T07:19:42.122Z,98364.03
2023-08-08T07:22:09.832Z,98246.22
2023-08-08T07:24:37.024Z,98116.94
2023-08-08T07:27:04.272Z,98010.13
2023-08-08T07:29:31.797Z,97933.75
2023-08-08T07:31:59.121Z,97882.69
2023-08-08T07:34:26.456Z,97807.59
2023-08-08T07:36:53.537Z,97766.34
2023-08-08T07:39:21.067Z,97719.91
2023-08-08T07:41:48.182Z,97711.03
2023-08-08T07:44:15.333Z,97718.78
2023-08-08T07:46:42.596Z,97722.13
2023-08-08T07:49:10.381Z,97742.22
2023-08-08T07:51:37.487Z,97611.59
2023-08-08T07:54:08.082Z,97596.72
2023-08-08T07:56:36.222Z,97511.06
2023-08-08T07:59:03.980Z,97407.06
2023-08-08T08:01:33.080Z,97444.09
2023-08-08T08:04:00.324Z,97333.09
2023-08-08T08:06:27.802Z,97262.16
2023-08-08T08:08:54.899Z,97229.81
2023-08-08T08:11:22.081Z,97196.81
2023-08-08T08:13:49.247Z,97149.31
2023-08-08T08:16:16.373Z,97062.56
2023-08-08T08:18:43.501Z,97016.75
2023-08-08T08:21:10.631Z,96984.00
2023-08-08T08:23:37.690Z,96950.25
2023-08-08T08:26:04.767Z,96862.28
2023-08-08T08:28:31.979Z,96776.09
2023-08-08T08:31:04.734Z,96744.53
2023-08-08T08:33:31.791Z,96654.06
2023-08-08T08:35:58.848Z,96582.59
2023-08-08T08:38:25.925Z,96580.72
2023-08-08T08:40:54.991Z,96529.69
2023-08-08T08:43:22.189Z,96464.03
2023-08-08T08:45:51.868Z,96383.16
2023-08-08T08:48:20.232Z,96319.28
2023-08-08T08:50:48.786Z,96222.16
2023-08-08T08:53:15.991Z,96054.91
2023-08-08T08:55:44.066Z,96112.75
2023-08-08T08:58:11.746Z,96198.41
2023-08-08T09:00:39.896Z,96155.38
2023-08-08T09:03:07.464Z,96009.00
2023-08-08T09:05:34.881Z,95922.97
2023-08-08T09:08:02.150Z,95936.00
2023-08-08T09:10:31.865Z,95825.66
2023-08-08T09:12:58.947Z,95818.09
2023-08-08T09:15:26.086Z,95761.56
2023-08-08T09:17:53.381Z,95689.88
2023-08-08T09:20:20.455Z,95563.63
2023-08-08T09:22:47.642Z,95491.78
2023-08-08T09:25:15.112Z,95351.84
2023-08-08T09:27:44.189Z,95274.53
2023-08-08T09:30:12.165Z,95264.09
2023-08-08T09:32:39.268Z,95318.16
2023-08-08T09:35:10.810Z,95317.59
2023-08-08T09:37:38.547Z,95221.06
2023-08-08T09:40:09.429Z,95061.81
2023-08-08T09:42:36.990Z,95036.03
2023-08-08T09:45:04.419Z,95015.44
2023-08-08T09:47:32.503Z,94917.63
2023-08-08T09:50:06.050Z,94789.28
2023-08-08T09:52:38.220Z,94807.09
2023-08-08T09:55:05.849Z,94779.34
2023-08-08T09:57:33.745Z,94803.47
2023-08-08T10:00:02.131Z,94825.63
2023-08-08T10:02:33.877Z,94835.16
2023-08-08T10:05:02.053Z,94781.16
2023-08-08T10:07:29.199Z,94712.38
2023-08-08T10:09:56.742Z,94689.88
2023-08-08T10:12:24.486Z,94674.88
2023-08-08T10:14:51.576Z,94670.47
2023-08-08T10:17:19.659Z,94635.00
2023-08-08T10:19:54.414Z,94655.91
2023-08-08T10:22:24.069Z,94634.66
2023-08-08T10:24:55.089Z,94591.06
2023-08-08T10:27:29.572Z,94605.97
2023-08-08T10:30:01.602Z,94606.78
2023-08-08T10:32:28.797Z,94602.66
2023-08-08T10:34:58.808Z,94596.06
2023-08-08T10:37:26.773Z,94593.38
2023-08-08T10:39:54.859Z,94603.69
2023-08-08T10:42:23.435Z,94634.09
2023-08-08T10:44:57.842Z,94658.25
2023-08-08T10:47:25.696Z,94658.06
2023-08-08T10:50:12.297Z,94685.50
2023-08-08T10:52:53.896Z,94675.78
2023-08-08T10:55:25.143Z,94670.59
2023-08-08T10:57:56.793Z,94668.44
2023-08-08T11:00:25.679Z,94649.78
2023-08-08T11:02:54.531Z,94677.41
2023-08-08T11:05:22.775Z,94710.41
2023-08-08T11:07:49.880Z,94704.63
2023-08-08T11:10:17.251Z,94677.72
2023-08-08T11:12:53.318Z,94637.78
2023-08-08T11:15:20.382Z,94608.81
2023-08-08T11:17:47.753Z,94625.53
2023-08-08T11:20:14.906Z,94623.88
2023-08-08T11:22:41.977Z,94603.09
2023-08-08T11:25:09.277Z,94615.91
2023-08-08T11:30:09.401Z,94651.44
2023-08-08T11:32:37.793Z,94648.44
2023-08-08T11:35:05.346Z,94641.31
2023-08-08T11:37:32.462Z,94645.00
2023-08-08T11:39:59.667Z,94630.53
2023-08-08T11:42:26.903Z,94642.91
2023-08-08T11:44:54.226Z,94621.81
2023-08-08T11:47:25.710Z,94602.78
2023-08-08T11:49:54.092Z,94594.81
2023-08-08T11:52:21.435Z,94610.41
2023-08-08T11:54:54.363Z,94599.41
2023-08-08T11:57:21.443Z,94610.78
2023-08-08T11:59:53.622Z,94629.44
2023-08-08T12:02:20.727Z,94644.09
2023-08-08T12:04:48.168Z,94643.31
2023-08-08T12:07:15.368Z,94628.28
2023-08-08T12:09:42.494Z,94615.97
2023-08-08T12:12:11.001Z,94640.47
2023-08-08T12:14:50.890Z,94666.78
2023-08-08T12:17:24.366Z,94659.53
2023-08-08T12:19:51.577Z,94651.22
2023-08-08T12:22:18.694Z,94648.47
2023-08-08T12:24:45.737Z,94642.06
2023-08-08T12:27:12.797Z,94650.41
2023-08-08T12:29:39.938Z,94649.59
2023-08-08T12:32:09.048Z,94654.97
2023-08-08T12:34:36.713Z,94671.13
2023-08-08T12:37:03.903Z,94666.13
2023-08-08T12:39:30.970Z,94670.56
2023-08-08T12:41:58.197Z,94676.56
2023-08-08T12:44:25.315Z,94684.44
2023-08-08T12:46:52.468Z,94682.28
2023-08-08T12:49:19.513Z,94675.00
2023-08-08T12:51:46.607Z,94680.13
2023-08-08T12:54:14.220Z,94690.81
2023-08-08T12:56:41.304Z,94702.88
2023-08-08T12:59:08.432Z,94734.47
2023-08-08T13:01:35.536Z,94780.44
2023-08-08T13:04:18.152Z,94784.59
2023-08-08T13:06:46.728Z,94818.19
2023-08-08T13:09:13.871Z,94827.31
2023-08-08T13:11:41.017Z,94855.28
2023-08-08T13:14:08.196Z,94853.50
2023-08-08T13:16:35.346Z,94849.19
2023-08-08T13:19:02.869Z,94856.09
2023-08-08T13:21:29.900Z,94856.69
2023-08-08T13:23:56.972Z,94872.41
2023-08-08T13:26:24.089Z,94874.34
2023-08-08T13:28:51.212Z,94885.28
2023-08-08T13:31:18.370Z,94863.44
2023-08-08T13:33:45.482Z,94881.38
2023-08-08T13:36:12.538Z,94868.38
2023-08-08T13:38:39.619Z,94870.53
2023-08-08T13:41:06.730Z,94875.88
2023-08-08T13:43:34.055Z,94885.22
2023-08-08T13:46:01.495Z,94885.63
2023-08-08T13:48:28.721Z,94873.34
2023-08-08T13:50:55.882Z,94867.09
2023-08-08T13:53:22.932Z,94870.19
2023-08-08T13:55:50.057Z,94853.97
2023-08-08T13:58:17.229Z,94851.53
2023-08-08T14:00:44.304Z,94865.97
2023-08-08T14:03:11.529Z,94882.28
2023-08-08T14:05:38.730Z,94884.31
2023-08-08T14:08:06.266Z,94883.69
2023-08-08T14:10:33.318Z,94887.81
2023-08-08T14:13:00.405Z,94878.22
2023-08-08T14:15:27.547Z,94904.91
2023-08-08T14:18:07.157Z,94896.19
2023-08-08T14:20:34.749Z,94906.22
2023-08-08T14:23:01.840Z,94918.22
2023-08-08T14:25:30.619Z,94932.69
2023-08-08T14:28:01.878Z,94967.34
2023-08-08T14:30:29.324Z,94987.00
2023-08-08T14:32:56.550Z,94986.84
2023-08-08T14:35:23.786Z,95006.41
2023-08-08T14:37:51.368Z,95046.53
2023-08-08T14:40:18.512Z,95126.53
2023-08-08T14:42:45.700Z,95158.78
2023-08-08T14:45:12.797Z,95147.63
2023-08-08T14:47:39.917Z,95108.38
2023-08-08T14:50:07.393Z,95135.13
2023-08-08T14:52:34.445Z,95198.69
2023-08-08T14:55:01.891Z,95262.59
2023-08-08T14:57:29.031Z,95335.66
2023-08-08T14:59:56.086Z,95389.34
2023-08-08T15:02:23.224Z,95430.75
2023-08-08T15:04:50.838Z,95439.31
2023-08-08T15:07:18.531Z,95453.28
2023-08-08T15:09:45.697Z,95440.72
2023-08-08T15:12:15.605Z,95440.16
2023-08-08T15:14:42.671Z,95471.22
2023-08-08T15:17:09.749Z,95487.75
2023-08-08T15:19:39.032Z,95487.63
2023-08-08T15:22:06.316Z,95470.09
2023-08-08T15:24:35.019Z,95456.94
2023-08-08T15:27:02.448Z,95463.84
2023-08-08T15:29:29.824Z,95475.53
2023-08-08T15:31:56.993Z,95464.78
2023-08-08T15:34:24.081Z,95459.59
2023-08-08T15:36:51.156Z,95450.31
2023-08-08T15:39:19.746Z,95427.66
2023-08-08T15:41:46.797Z,95419.22
2023-08-08T15:44:13.921Z,95405.44
2023-08-08T15:46:40.991Z,95378.22
2023-08-08T15:49:08.136Z,95388.53
2023-08-08T15:51:35.198Z,95368.53
2023-08-08T15:54:02.277Z,95357.53
2023-08-08T15:56:29.321Z,95332.38
2023-08-08T15:58:56.448Z,95317.16
2023-08-08T16:01:23.581Z,95297.22
2023-08-08T16:03:50.840Z,95298.34
2023-08-08T16:06:17.896Z,95283.59
2023-08-08T16:08:44.978Z,95257.31
2023-08-08T16:11:12.060Z,95241.75
2023-08-08T16:13:39.138Z,95227.47
2023-08-08T16:16:06.259Z,95202.97
2023-08-08T16:18:33.483Z,95175.00
2023-08-08T16:21:01.741Z,95183.16
2023-08-08T16:23:28.858Z,95163.78
2023-08-08T16:25:55.880Z,95140.53
2023-08-08T16:28:24.613Z,95113.34
2023-08-08T16:30:51.660Z,95088.53
2023-08-08T16:33:19.070Z,95072.75
2023-08-08T16:35:46.221Z,95051.00
2023-08-08T16:38:13.330Z,95050.53
2023-08-08T16:40:40.717Z,95028.78
2023-08-08T16:43:08.540Z,95010.84
2023-08-08T16:45:35.641Z,95004.53
2023-08-08T16:48:02.757Z,94987.31
2023-08-08T16:50:30.020Z,94983.00
2023-08-08T16:52:57.169Z,94992.75
2023-08-08T16:55:24.487Z,94997.41
2023-08-08T16:57:51.949Z,94984.81
2023-08-08T17:00:19.121Z,94990.25
2023-08-08T17:02:46.307Z,94977.09
2023-08-08T17:05:14.459Z,94967.81
2023-08-08T17:07:41.528Z,94968.47
2023-08-08T17:10:08.796Z,94969.84
2023-08-08T17:12:35.864Z,94977.53
2023-08-08T17:15:03.033Z,94973.00
2023-08-08T17:17:30.177Z,94964.06
2023-08-08T17:19:57.275Z,94963.16
2023-08-08T17:22:24.473Z,94971.66
2023-08-08T17:24:51.606Z,94965.31
2023-08-08T17:27:18.725Z,94975.75
2023-08-08T17:29:45.865Z,94968.72
2023-08-08T17:32:14.438Z,94971.53
2023-08-08T17:34:42.213Z,94972.16
2023-08-08T17:37:09.305Z,94965.59
2023-08-08T17:39:36.456Z,94965.72
2023-08-08T17:42:03.990Z,94971.81
2023-08-08T17:44:31.396Z,94969.75
2023-08-08T17:46:58.620Z,94965.44
2023-08-08T17:49:25.724Z,94970.63
2023-08-08T17:51:52.812Z,94982.38
2023-08-08T17:54:19.910Z,94978.41
2023-08-08T17:56:47.046Z,94989.16
2023-08-08T17:59:14.132Z,94999.22
2023-08-08T18:01:41.324Z,95001.47
2023-08-08T18:04:10.524Z,95011.88
2023-08-08T18:06:37.918Z,95022.59
2023-08-08T18:09:05.114Z,95023.72
2023-08-08T18:11:39.005Z,95031.44
2023-08-08T18:14:07.082Z,95034.31
2023-08-08T18:16:34.970Z,95043.78
2023-08-08T18:19:02.514Z,95027.84
2023-08-08T18:21:31.102Z,95034.28
2023-08-08T18:23:58.334Z,95029.50
2023-08-08T18:26:25.568Z,95037.63
2023-08-08T18:28:52.718Z,95043.59
2023-08-08T18:31:19.806Z,95055.91
2023-08-08T18:33:46.995Z,95054.78
2023-08-08T18:36:14.526Z,95059.75
2023-08-08T18:38:43.572Z,95070.34
2023-08-08T18:41:11.293Z,95073.19
2023-08-08T18:43:38.389Z,95088.56
2023-08-08T18:46:06.019Z,95090.78
2023-08-08T18:48:33.312Z,95094.63
2023-08-08T18:51:01.106Z,95098.47
2023-08-08T18:53:28.313Z,95093.06
2023-08-08T18:55:55.466Z,95095.94
2023-08-08T18:58:22.547Z,95088.28
2023-08-08T19:00:50.174Z,95095.00
2023-08-08T19:03:19.719Z,95092.94
2023-08-08T19:05:46.858Z,95094.53
2023-08-08T19:08:13.925Z,95103.31
2023-08-08T19:10:40.983Z,95106.22
2023-08-08T19:13:08.314Z,95114.84
2023-08-08T19:15:35.548Z,95105.28
2023-08-08T19:18:02.687Z,95108.00
2023-08-08T19:20:29.735Z,95107.25
2023-08-08T19:22:57.429Z,95106.59
2023-08-08T19:25:24.657Z,95106.59
2023-08-08T19:27:51.745Z,95104.84
2023-08-08T19:30:18.818Z,95096.38
2023-08-08T19:32:46.006Z,95103.59
2023-08-08T19:35:13.328Z,95091.78
2023-08-08T19:37:40.387Z,95093.38
2023-08-08T19:40:08.024Z,95091.38
2023-08-08T19:42:35.512Z,95083.41
2023-08-08T19:45:04.399Z,95077.38
2023-08-08T19:47:32.790Z,95084.19
2023-08-08T19:50:00.030Z,95093.44
2023-08-08T19:52:27.136Z,95088.69
2023-08-08T19:54:54.336Z,95085.00
2023-08-08T19:57:21.857Z,95078.47
2023-08-08T19:59:50.453Z,95083.41
2023-08-08T20:02:17.706Z,95086.78
2023-08-08T20:04:44.806Z,95091.22
2023-08-08T20:07:11.916Z,95082.50
2023-08-08T20:09:38.974Z,95090.13
2023-08-08T20:12:06.235Z,95099.69
2023-08-08T20:14:33.837Z,95091.75
2023-08-08T20:17:01.243Z,95089.69
2023-08-08T20:19:28.547Z,95083.13
2023-08-08T20:21:57.462Z,95068.97
2023-08-08T20:24:25.149Z,95059.25
2023-08-08T20:26:52.625Z,95079.81
2023-08-08T20:29:19.961Z,95081.41
2023-08-08T20:31:47.356Z,95087.00
2023-08-08T20:34:14.683Z,95092.25
2023-08-08T20:36:41.786Z,95090.19
2023-08-08T20:39:09.047Z,95106.94
2023-08-08T20:41:36.158Z,95117.00
2023-08-08T20:44:05.420Z,95110.56
2023-08-08T20:46:32.764Z,95091.00
2023-08-08T20:49:00.189Z,95080.16
2023-08-08T20:51:27.334Z,95091.00
2023-08-08T20:53:54.636Z,95100.22
2023-08-08T20:56:21.886Z,95106.13
2023-08-08T20:58:49.490Z,95115.53
2023-08-08T21:01:16.655Z,95105.34
2023-08-08T21:03:43.836Z,95118.56
2023-08-08T21:06:10.978Z,95134.94
2023-08-08T21:08:38.218Z,95162.69
2023-08-08T21:11:05.529Z,95179.75
2023-08-08T21:13:32.653Z,95210.34
2023-08-08T21:15:59.776Z,95200.09
2023-08-08T21:18:26.992Z,95215.09
2023-08-08T21:20:54.948Z,95231.97
2023-08-08T21:23:22.020Z,95234.19
2023-08-08T21:25:49.112Z,95266.22
2023-08-08T21:28:16.170Z,95291.84
2023-08-08T21:30:43.281Z,95304.75
2023-08-08T21:33:10.397Z,95297.41
2023-08-08T21:35:37.443Z,95294.56
2023-08-08T21:38:04.591Z,95292.31
2023-08-08T21:40:31.689Z,95311.88
2023-08-08T21:42:58.756Z,95342.91
2023-08-08T21:45:25.836Z,95370.16
2023-08-08T21:47:53.033Z,95344.34
2023-08-08T21:50:20.152Z,95364.50
2023-08-08T21:52:47.242Z,95361.19
2023-08-08T21:55:14.484Z,95360.84
2023-08-08T21:57:41.550Z,95371.69
2023-08-08T22:00:14.137Z,95366.88
2023-08-08T22:02:42.951Z,95377.28
2023-08-08T22:05:10.070Z,95371.31
2023-08-08T22:07:37.160Z,95396.78
2023-08-08T22:10:04.778Z,95397.88
2023-08-08T22:12:32.276Z,95398.69
2023-08-08T22:14:59.407Z,95384.34
2023-08-08T22:17:26.565Z,95387.38
2023-08-08T22:19:54.071Z,95384.78
2023-08-08T22:22:21.299Z,95386.84
2023-08-08T22:24:48.483Z,95381.22
2023-08-08T22:27:15.955Z,95394.47
2023-08-08T22:29:43.265Z,95405.28
2023-08-08T22:32:10.402Z,95423.41
2023-08-08T22:34:37.472Z,95408.94
2023-08-08T22:37:04.633Z,95413.53
2023-08-08T22:39:31.722Z,95434.06
2023-08-08T22:41:58.758Z,95439.94
2023-08-08T22:44:25.828Z,95434.19
2023-08-08T22:46:53.384Z,95442.00
2023-08-08T22:49:20.468Z,95450.53
2023-08-08T22:51:47.554Z,95454.84
2023-08-08T22:54:15.793Z,95455.94
2023-08-08T22:56:43.037Z,95474.88
2023-08-08T22:59:10.147Z,95487.31
2023-08-08T23:01:37.216Z,95496.00
2023-08-08T23:04:04.465Z,95505.72
2023-08-08T23:06:31.501Z,95522.59
2023-08-08T23:08:58.546Z,95532.41
2023-08-08T23:11:25.608Z,95543.84
2023-08-08T23:13:52.721Z,95561.03
2023-08-08T23:16:19.819Z,95583.31
2023-08-08T23:18:46.922Z,95594.41
2023-08-08T23:21:14.406Z,95612.56
2023-08-08T23:23:41.532Z,95631.38
2023-08-08T23:26:08.828Z,95628.97
2023-08-08T23:28:35.919Z,95637.41
2023-08-08T23:31:03.043Z,95660.59
2023-08-08T23:33:30.136Z,95674.94
2023-08-08T23:35:57.361Z,95709.91
2023-08-08T23:38:24.516Z,95742.94
2023-08-08T23:40:51.596Z,95775.34
2023-08-08T23:43:18.740Z,95827.72
2023-08-08T23:45:46.258Z,95869.63
2023-08-08T23:48:13.370Z,95898.84
2023-08-08T23:50:40.420Z,95933.22
2023-08-08T23:53:08.012Z,95960.97
2023-08-08T23:55:35.152Z,95987.81
2023-08-08T23:58:02.198Z,96045.44
